createdAt,value
2022-08-01T00:00:12.803Z,24.28
2022-08-01T00:02:39.444Z,24.30
2022-08-01T00:05:08.618Z,24.26
2022-08-01T00:07:34.930Z,24.18
2022-08-01T00:10:01.267Z,24.13
2022-08-01T00:12:27.559Z,24.16
2022-08-01T00:14:53.869Z,24.15
2022-08-01T00:17:20.179Z,24.13
2022-08-01T00:19:46.491Z,24.13
2022-08-01T00:22:12.812Z,24.13
2022-08-01T00:24:39.130Z,24.11
2022-08-01T00:27:05.429Z,24.08
2022-08-01T00:30:10.311Z,23.97
2022-08-01T00:32:18.012Z,23.96
2022-08-01T00:34:44.344Z,23.98
2022-08-01T00:37:10.646Z,23.96
2022-08-01T00:39:42.265Z,23.91
2022-08-01T00:42:08.678Z,23.76
2022-08-01T00:44:35.041Z,23.65
2022-08-01T00:47:01.347Z,23.70
2022-08-01T00:49:27.722Z,23.66
2022-08-01T00:51:54.055Z,23.63
2022-08-01T00:54:20.361Z,23.60
2022-08-01T00:56:46.670Z,23.54
2022-08-01T00:59:13.369Z,23.49
2022-08-01T01:01:40.428Z,23.38
2022-08-01T01:04:12.920Z,23.30
2022-08-01T01:06:39.260Z,23.31
2022-08-01T01:09:05.560Z,23.29
2022-08-01T01:11:31.885Z,22.83
2022-08-01T01:13:58.185Z,22.94
2022-08-01T01:16:24.521Z,22.71
2022-08-01T01:18:50.814Z,22.71
2022-08-01T01:21:17.409Z,22.57
2022-08-01T01:23:43.712Z,22.71
2022-08-01T01:26:10.011Z,22.69
2022-08-01T01:28:36.323Z,22.64
2022-08-01T01:31:02.622Z,22.72
2022-08-01T01:33:35.052Z,22.81
2022-08-01T01:36:11.894Z,22.79
2022-08-01T01:38:38.206Z,22.82
2022-08-01T01:41:04.552Z,22.81
2022-08-01T01:43:33.529Z,22.81
2022-08-01T01:46:00.131Z,22.40
2022-08-01T01:48:26.440Z,22.60
2022-08-01T01:50:52.741Z,22.50
2022-08-01T01:53:19.041Z,22.62
2022-08-01T01:55:49.997Z,22.10
2022-08-01T01:58:16.465Z,22.43
2022-08-01T02:00:42.746Z,22.43
2022-08-01T02:03:12.294Z,22.50
2022-08-01T02:05:38.778Z,22.51
2022-08-01T02:08:05.080Z,22.36
2022-08-01T02:10:31.388Z,22.49
2022-08-01T02:12:57.687Z,22.54
2022-08-01T02:15:23.976Z,22.59
2022-08-01T02:17:50.264Z,22.62
2022-08-01T02:20:17.145Z,22.66
2022-08-01T02:22:43.389Z,22.66
2022-08-01T02:25:09.688Z,22.68
2022-08-01T02:27:36.012Z,22.69
2022-08-01T02:30:02.325Z,22.68
2022-08-01T02:32:28.610Z,22.65
2022-08-01T02:34:54.897Z,22.70
2022-08-01T02:37:21.931Z,22.72
2022-08-01T02:39:48.236Z,22.70
2022-08-01T02:42:14.536Z,22.48
2022-08-01T02:44:40.832Z,22.47
2022-08-01T02:47:07.259Z,22.64
2022-08-01T02:49:34.053Z,22.70
2022-08-01T02:52:00.388Z,22.71
2022-08-01T02:54:26.693Z,22.72
2022-08-01T02:56:52.979Z,22.71
2022-08-01T02:59:22.247Z,22.68
2022-08-01T03:01:48.882Z,22.74
2022-08-01T03:04:15.550Z,22.72
2022-08-01T03:06:44.379Z,22.73
2022-08-01T03:09:11.606Z,22.65
2022-08-01T03:11:37.920Z,22.57
2022-08-01T03:14:04.250Z,22.46
2022-08-01T03:16:30.545Z,22.58
2022-08-01T03:18:57.033Z,22.51
2022-08-01T03:21:23.386Z,22.56
2022-08-01T03:23:54.715Z,22.64
2022-08-01T03:26:21.437Z,22.64
2022-08-01T03:28:47.788Z,22.66
2022-08-01T03:31:14.095Z,22.59
2022-08-01T03:33:40.393Z,22.64
2022-08-01T03:36:06.703Z,22.64
2022-08-01T03:38:33.007Z,22.55
2022-08-01T03:40:59.292Z,22.62
2022-08-01T03:43:25.605Z,22.62
2022-08-01T03:45:51.899Z,22.65
2022-08-01T03:48:18.210Z,22.68
2022-08-01T03:50:44.506Z,22.70
2022-08-01T03:53:10.990Z,22.70
2022-08-01T03:55:38.260Z,22.69
2022-08-01T03:58:08.294Z,22.72
2022-08-01T04:00:36.082Z,22.73
2022-08-01T04:03:02.363Z,22.72
2022-08-01T04:05:28.655Z,22.73
2022-08-01T04:07:57.810Z,22.73
2022-08-01T04:10:24.123Z,22.68
2022-08-01T04:12:50.416Z,22.66
2022-08-01T04:15:16.747Z,22.62
2022-08-01T04:17:43.032Z,22.61
2022-08-01T04:20:09.356Z,22.67
2022-08-01T04:22:37.315Z,22.65
2022-08-01T04:25:04.136Z,22.63
2022-08-01T04:27:50.712Z,22.64
2022-08-01T04:30:17.947Z,22.69
2022-08-01T04:32:46.659Z,22.74
2022-08-01T04:35:57.709Z,22.85
2022-08-01T04:37:59.373Z,22.93
2022-08-01T04:40:27.177Z,23.03
2022-08-01T04:42:53.413Z,23.10
2022-08-01T04:45:19.716Z,22.96
2022-08-01T04:47:46.110Z,22.97
2022-08-01T04:50:12.429Z,23.01
2022-08-01T04:52:38.922Z,22.93
2022-08-01T04:55:10.017Z,22.82
2022-08-01T04:57:36.320Z,22.89
2022-08-01T05:00:03.484Z,22.88
2022-08-01T05:02:30.080Z,22.71
2022-08-01T05:04:56.388Z,22.77
2022-08-01T05:07:22.678Z,22.57
2022-08-01T05:09:48.981Z,22.63
2022-08-01T05:12:15.284Z,22.43
2022-08-01T05:14:41.621Z,22.49
2022-08-01T05:17:07.902Z,22.46
2022-08-01T05:19:34.217Z,22.42
2022-08-01T05:22:01.563Z,22.48
2022-08-01T05:24:29.306Z,22.51
2022-08-01T05:26:57.193Z,22.43
2022-08-01T05:29:23.500Z,22.30
2022-08-01T05:31:50.005Z,22.26
2022-08-01T05:34:16.384Z,22.47
2022-08-01T05:36:42.680Z,22.45
2022-08-01T05:39:09.000Z,22.61
2022-08-01T05:41:35.391Z,22.71
2022-08-01T05:44:01.692Z,22.60
2022-08-01T05:46:27.993Z,22.98
2022-08-01T05:48:54.352Z,22.94
2022-08-01T05:51:20.678Z,22.71
2022-08-01T05:53:47.064Z,22.68
2022-08-01T05:56:13.364Z,22.63
2022-08-01T05:58:39.673Z,22.70
2022-08-01T06:01:06.028Z,22.77
2022-08-01T06:03:34.177Z,22.53
2022-08-01T06:06:00.462Z,22.70
2022-08-01T06:08:26.746Z,22.36
2022-08-01T06:10:53.385Z,22.23
2022-08-01T06:13:20.499Z,22.21
2022-08-01T06:15:46.808Z,22.22
2022-08-01T06:18:13.104Z,22.51
2022-08-01T06:20:39.386Z,22.51
2022-08-01T06:23:12.177Z,22.70
2022-08-01T06:25:51.957Z,22.73
2022-08-01T06:28:18.620Z,22.75
2022-08-01T06:30:44.907Z,22.58
2022-08-01T06:33:11.239Z,22.45
2022-08-01T06:35:37.531Z,22.50
2022-08-01T06:38:03.974Z,22.58
2022-08-01T06:40:30.284Z,22.48
2022-08-01T06:42:56.580Z,22.64
2022-08-01T06:45:27.823Z,22.45
2022-08-01T06:47:54.110Z,22.44
2022-08-01T06:50:20.414Z,22.58
2022-08-01T06:52:46.793Z,22.86
2022-08-01T06:55:13.091Z,22.49
2022-08-01T06:57:39.417Z,22.56
2022-08-01T07:00:07.101Z,22.45
2022-08-01T07:02:33.403Z,22.45
2022-08-01T07:05:01.313Z,22.36
2022-08-01T07:07:30.160Z,22.19
2022-08-01T07:09:56.484Z,22.18
2022-08-01T07:12:22.794Z,21.51
2022-08-01T07:14:49.120Z,21.41
2022-08-01T07:17:15.456Z,21.06
2022-08-01T07:19:41.826Z,21.67
2022-08-01T07:22:09.172Z,21.65
2022-08-01T07:24:37.342Z,21.70
2022-08-01T07:27:23.899Z,21.68
2022-08-01T07:29:49.912Z,21.66
2022-08-01T07:32:16.209Z,21.88
2022-08-01T07:34:44.613Z,21.81
2022-08-01T07:37:10.909Z,22.13
2022-08-01T07:39:37.204Z,21.97
2022-08-01T07:42:07.308Z,22.23
2022-08-01T07:44:34.237Z,22.38
2022-08-01T07:47:00.519Z,21.98
2022-08-01T07:49:26.875Z,21.81
2022-08-01T07:52:03.264Z,22.14
2022-08-01T07:54:39.618Z,22.67
2022-08-01T07:57:05.919Z,23.02
2022-08-01T07:59:32.237Z,23.26
2022-08-01T08:01:58.702Z,22.59
2022-08-01T08:04:25.391Z,23.11
2022-08-01T08:06:51.740Z,21.99
2022-08-01T08:09:18.044Z,22.59
2022-08-01T08:11:47.209Z,22.97
2022-08-01T08:14:14.265Z,22.84
2022-08-01T08:16:40.555Z,23.22
2022-08-01T08:19:06.857Z,22.84
2022-08-01T08:21:33.168Z,23.33
2022-08-01T08:24:18.392Z,23.37
2022-08-01T08:26:44.687Z,23.29
2022-08-01T08:29:11.010Z,23.65
2022-08-01T08:31:52.268Z,24.17
2022-08-01T08:34:19.104Z,23.88
2022-08-01T08:36:47.887Z,23.79
2022-08-01T08:39:14.540Z,24.45
2022-08-01T08:41:40.830Z,23.68
2022-08-01T08:44:10.375Z,23.30
2022-08-01T08:46:37.616Z,22.77
2022-08-01T08:49:04.355Z,23.19
2022-08-01T08:51:32.947Z,23.50
2022-08-01T08:53:59.254Z,23.53
2022-08-01T08:56:25.547Z,23.73
2022-08-01T08:58:54.732Z,24.03
2022-08-01T09:01:22.795Z,24.10
2022-08-01T09:03:49.412Z,24.22
2022-08-01T09:06:15.711Z,24.55
2022-08-01T09:08:42.021Z,24.66
2022-08-01T09:11:08.312Z,24.71
2022-08-01T09:13:34.617Z,24.67
2022-08-01T09:16:00.929Z,24.45
2022-08-01T09:18:28.693Z,24.54
2022-08-01T09:20:54.932Z,24.80
2022-08-01T09:23:21.228Z,24.92
2022-08-01T09:25:47.885Z,24.66
2022-08-01T09:28:14.290Z,24.83
2022-08-01T09:30:42.292Z,25.17
2022-08-01T09:33:17.830Z,25.09
2022-08-01T09:35:48.088Z,25.00
2022-08-01T09:38:15.412Z,25.09
2022-08-01T09:40:41.726Z,25.40
2022-08-01T09:43:08.061Z,24.82
2022-08-01T09:45:41.029Z,25.57
2022-08-01T09:48:10.575Z,25.86
2022-08-01T09:50:37.122Z,24.90
2022-08-01T09:53:04.362Z,25.18
2022-08-01T09:55:30.668Z,25.86
2022-08-01T09:57:57.106Z,26.34
2022-08-01T10:00:44.348Z,26.40
2022-08-01T10:03:10.388Z,25.85
2022-08-01T10:05:37.458Z,26.27
2022-08-01T10:08:07.973Z,25.86
2022-08-01T10:10:34.590Z,26.21
2022-08-01T10:13:03.880Z,26.04
2022-08-01T10:15:36.703Z,26.25
2022-08-01T10:18:03.942Z,26.06
2022-08-01T10:20:32.425Z,26.04
2022-08-01T10:22:58.854Z,25.86
2022-08-01T10:25:42.097Z,26.40
2022-08-01T10:28:10.258Z,26.39
2022-08-01T10:30:36.716Z,26.42
2022-08-01T10:33:03.019Z,26.06
2022-08-01T10:35:46.841Z,26.13
2022-08-01T10:38:14.174Z,26.62
2022-08-01T10:40:40.559Z,26.52
2022-08-01T10:43:06.940Z,26.73
2022-08-01T10:45:34.256Z,26.28
2022-08-01T10:48:00.600Z,26.32
2022-08-01T10:50:28.338Z,26.43
2022-08-01T10:52:54.640Z,26.50
2022-08-01T10:55:20.954Z,26.32
2022-08-01T10:57:52.516Z,26.24
2022-08-01T11:00:19.302Z,26.40
2022-08-01T11:02:49.405Z,26.67
2022-08-01T11:05:15.695Z,26.06
2022-08-01T11:07:45.510Z,26.32
2022-08-01T11:10:15.109Z,26.11
2022-08-01T11:12:41.502Z,26.90
2022-08-01T11:15:10.470Z,26.84
2022-08-01T11:17:37.224Z,26.99
2022-08-01T11:20:05.342Z,26.91
2022-08-01T11:22:31.649Z,27.33
2022-08-01T11:24:57.933Z,27.63
2022-08-01T11:27:24.423Z,27.97
2022-08-01T11:29:50.726Z,27.67
2022-08-01T11:32:17.014Z,27.21
2022-08-01T11:34:43.316Z,27.74
2022-08-01T11:37:10.091Z,27.92
2022-08-01T11:39:38.799Z,27.44
2022-08-01T11:42:05.378Z,27.78
2022-08-01T11:44:34.376Z,27.44
2022-08-01T11:47:00.741Z,26.78
2022-08-01T11:49:29.366Z,26.63
2022-08-01T11:51:55.901Z,26.44
2022-08-01T11:54:35.442Z,25.93
2022-08-01T11:57:02.335Z,25.29
2022-08-01T11:59:33.987Z,24.87
2022-08-01T12:02:04.844Z,24.48
2022-08-01T12:04:31.195Z,23.87
2022-08-01T12:06:57.547Z,24.98
2022-08-01T12:09:25.309Z,25.18
2022-08-01T12:11:51.544Z,25.11
2022-08-01T12:14:17.840Z,24.82
2022-08-01T12:16:44.122Z,25.67
2022-08-01T12:19:11.802Z,25.90
2022-08-01T12:21:38.198Z,26.38
2022-08-01T12:24:04.499Z,26.78
2022-08-01T12:26:32.245Z,27.11
2022-08-01T12:28:58.760Z,27.37
2022-08-01T12:31:25.045Z,26.24
2022-08-01T12:33:51.344Z,26.36
2022-08-01T12:36:17.658Z,26.20
2022-08-01T12:38:43.950Z,25.78
2022-08-01T12:41:10.230Z,26.24
2022-08-01T12:43:36.541Z,25.92
2022-08-01T12:46:02.841Z,26.43
2022-08-01T12:48:29.201Z,26.90
2022-08-01T12:50:57.633Z,26.94
2022-08-01T12:53:23.931Z,26.88
2022-08-01T12:55:58.525Z,26.78
2022-08-01T12:58:26.044Z,26.50
2022-08-01T13:00:52.378Z,26.75
2022-08-01T13:03:18.704Z,26.40
2022-08-01T13:05:45.019Z,26.40
2022-08-01T13:08:11.334Z,26.95
2022-08-01T13:10:37.681Z,27.35
2022-08-01T13:13:04.214Z,27.36
2022-08-01T13:15:32.574Z,27.19
2022-08-01T13:17:59.177Z,27.44
2022-08-01T13:20:25.498Z,27.57
2022-08-01T13:22:52.697Z,27.73
2022-08-01T13:25:22.653Z,27.52
2022-08-01T13:27:53.860Z,27.12
2022-08-01T13:30:20.432Z,27.41
2022-08-01T13:32:46.758Z,27.67
2022-08-01T13:35:16.092Z,27.77
2022-08-01T13:37:42.799Z,27.72
2022-08-01T13:40:09.054Z,27.80
2022-08-01T13:42:35.417Z,27.39
2022-08-01T13:45:02.921Z,27.06
2022-08-01T13:47:32.124Z,27.63
2022-08-01T13:50:01.603Z,27.77
2022-08-01T13:52:28.180Z,27.96
2022-08-01T13:54:54.478Z,27.97
2022-08-01T13:57:21.658Z,27.63
2022-08-01T13:59:47.982Z,27.66
2022-08-01T14:02:14.281Z,27.89
2022-08-01T14:04:40.565Z,27.37
2022-08-01T14:07:09.645Z,27.55
2022-08-01T14:09:38.178Z,27.82
2022-08-01T14:12:24.411Z,27.95
2022-08-01T14:14:50.798Z,27.98
2022-08-01T14:17:17.117Z,28.08
2022-08-01T14:19:46.213Z,28.17
2022-08-01T14:22:12.869Z,28.24
2022-08-01T14:24:39.240Z,28.29
2022-08-01T14:27:07.362Z,28.06
2022-08-01T14:30:02.209Z,27.95
2022-08-01T14:32:19.988Z,27.23
2022-08-01T14:34:50.758Z,27.77
2022-08-01T14:37:17.056Z,28.11
2022-08-01T14:39:47.028Z,27.92
2022-08-01T14:42:20.716Z,27.82
2022-08-01T14:44:49.827Z,27.69
2022-08-01T14:47:21.726Z,27.77
2022-08-01T14:49:48.582Z,27.78
2022-08-01T14:52:14.919Z,27.90
2022-08-01T14:54:41.210Z,27.64
2022-08-01T14:57:07.532Z,27.19
2022-08-01T14:59:33.820Z,27.48
2022-08-01T15:02:00.116Z,27.29
2022-08-01T15:04:26.408Z,26.98
2022-08-01T15:06:52.715Z,27.25
2022-08-01T15:09:19.021Z,27.11
2022-08-01T15:11:45.339Z,27.33
2022-08-01T15:14:30.703Z,27.48
2022-08-01T15:16:57.270Z,27.59
2022-08-01T15:19:23.579Z,27.67
2022-08-01T15:21:49.909Z,27.44
2022-08-01T15:24:16.214Z,27.41
2022-08-01T15:26:43.709Z,27.20
2022-08-01T15:29:10.018Z,27.03
2022-08-01T15:31:36.352Z,26.93
2022-08-01T15:34:05.500Z,27.21
2022-08-01T15:36:32.016Z,27.39
2022-08-01T15:38:58.419Z,27.31
2022-08-01T15:41:24.736Z,27.45
2022-08-01T15:43:55.834Z,27.34
2022-08-01T15:46:22.453Z,27.36
2022-08-01T15:48:48.836Z,27.57
2022-08-01T15:51:15.178Z,27.33
2022-08-01T15:53:41.847Z,27.15
2022-08-01T15:56:08.145Z,27.12
2022-08-01T15:58:34.650Z,27.03
2022-08-01T16:01:00.948Z,27.13
2022-08-01T16:03:27.727Z,27.01
2022-08-01T16:05:53.964Z,26.48
2022-08-01T16:08:20.277Z,26.59
2022-08-01T16:10:46.609Z,26.62
2022-08-01T16:13:12.948Z,26.42
2022-08-01T16:15:39.463Z,26.26
2022-08-01T16:18:05.852Z,26.74
2022-08-01T16:20:32.138Z,27.09
2022-08-01T16:22:58.529Z,27.08
2022-08-01T16:25:24.876Z,27.17
2022-08-01T16:27:51.236Z,26.93
2022-08-01T16:30:17.525Z,27.29
2022-08-01T16:32:47.080Z,27.10
2022-08-01T16:35:15.083Z,27.41
2022-08-01T16:37:41.382Z,26.63
2022-08-01T16:40:07.709Z,27.03
2022-08-01T16:42:34.035Z,27.26
2022-08-01T16:45:01.918Z,27.34
2022-08-01T16:47:35.255Z,27.17
2022-08-01T16:50:01.600Z,27.29
2022-08-01T16:52:28.711Z,27.24
2022-08-01T16:54:57.327Z,27.11
2022-08-01T16:57:23.640Z,26.93
2022-08-01T16:59:49.940Z,26.49
2022-08-01T17:02:16.924Z,26.59
2022-08-01T17:04:43.236Z,26.75
2022-08-01T17:07:10.045Z,26.59
2022-08-01T17:09:39.904Z,26.37
2022-08-01T17:12:10.578Z,26.11
2022-08-01T17:14:39.718Z,25.68
2022-08-01T17:17:06.636Z,25.66
2022-08-01T17:19:33.420Z,26.06
2022-08-01T17:21:59.768Z,25.72
2022-08-01T17:24:26.060Z,25.84
2022-08-01T17:26:52.383Z,26.02
2022-08-01T17:29:18.677Z,26.07
2022-08-01T17:31:45.000Z,26.33
2022-08-01T17:34:11.312Z,26.27
2022-08-01T17:36:37.619Z,26.31
2022-08-01T17:39:04.922Z,26.31
2022-08-01T17:41:31.460Z,25.60
2022-08-01T17:43:57.821Z,26.07
2022-08-01T17:46:24.156Z,25.68
2022-08-01T17:48:50.545Z,25.67
2022-08-01T17:51:22.178Z,25.78
2022-08-01T17:53:55.608Z,25.89
2022-08-01T17:56:23.886Z,25.72
2022-08-01T17:58:52.243Z,25.73
2022-08-01T18:01:18.845Z,25.66
2022-08-01T18:03:45.291Z,25.77
2022-08-01T18:06:13.459Z,25.60
2022-08-01T18:08:41.731Z,25.47
2022-08-01T18:11:08.064Z,25.50
2022-08-01T18:13:35.714Z,25.50
2022-08-01T18:16:02.533Z,25.62
2022-08-01T18:18:33.338Z,25.31
2022-08-01T18:21:00.381Z,25.18
2022-08-01T18:23:26.670Z,25.15
2022-08-01T18:25:53.711Z,25.07
2022-08-01T18:28:32.280Z,25.32
2022-08-01T18:31:01.899Z,25.11
2022-08-01T18:33:28.207Z,25.37
2022-08-01T18:35:56.055Z,25.17
2022-08-01T18:38:28.013Z,24.81
2022-08-01T18:40:54.340Z,25.05
2022-08-01T18:43:20.639Z,24.74
2022-08-01T18:45:46.919Z,24.82
2022-08-01T18:48:13.260Z,24.68
2022-08-01T18:50:39.710Z,24.88
2022-08-01T18:53:06.003Z,24.57
2022-08-01T18:55:32.321Z,24.22
2022-08-01T18:57:58.643Z,24.70
2022-08-01T19:00:24.928Z,24.55
2022-08-01T19:02:51.240Z,24.67
2022-08-01T19:05:17.536Z,24.82
2022-08-01T19:08:06.839Z,24.88
2022-08-01T19:10:30.165Z,24.93
2022-08-01T19:12:56.481Z,24.76
2022-08-01T19:15:22.758Z,24.69
2022-08-01T19:17:49.064Z,24.41
2022-08-01T19:20:15.359Z,24.64
2022-08-01T19:22:41.660Z,24.40
2022-08-01T19:25:07.961Z,24.59
2022-08-01T19:27:34.267Z,24.13
2022-08-01T19:30:00.550Z,24.34
2022-08-01T19:32:26.857Z,24.31
2022-08-01T19:34:54.566Z,24.49
2022-08-01T19:37:25.373Z,24.52
2022-08-01T19:39:53.412Z,24.37
2022-08-01T19:42:19.753Z,24.42
2022-08-01T19:44:46.069Z,24.38
2022-08-01T19:47:13.954Z,24.33
2022-08-01T19:49:40.283Z,24.34
2022-08-01T19:52:06.629Z,24.33
2022-08-01T19:54:33.562Z,24.29
2022-08-01T19:56:59.779Z,24.29
2022-08-01T19:59:26.375Z,24.23
2022-08-01T20:01:54.264Z,24.15
2022-08-01T20:04:20.560Z,24.12
2022-08-01T20:06:46.847Z,24.08
2022-08-01T20:09:13.318Z,23.88
2022-08-01T20:11:39.622Z,23.49
2022-08-01T20:14:05.921Z,23.69
2022-08-01T20:16:33.013Z,23.66
2022-08-01T20:18:59.319Z,23.64
2022-08-01T20:21:25.620Z,23.58
2022-08-01T20:23:51.947Z,22.40
2022-08-01T20:26:18.292Z,23.11
2022-08-01T20:28:44.593Z,23.19
2022-08-01T20:31:10.952Z,23.09
2022-08-01T20:33:37.344Z,23.02
2022-08-01T20:36:03.643Z,23.12
2022-08-01T20:38:32.547Z,23.28
2022-08-01T20:40:59.065Z,23.04
2022-08-01T20:43:27.359Z,22.93
2022-08-01T20:45:53.705Z,23.04
2022-08-01T20:48:20.320Z,23.06
2022-08-01T20:51:05.195Z,22.09
2022-08-01T20:53:31.551Z,22.49
2022-08-01T20:55:57.839Z,22.71
2022-08-01T20:58:24.143Z,22.59
2022-08-01T21:00:50.522Z,22.76
2022-08-01T21:03:16.886Z,22.82
2022-08-01T21:05:55.791Z,22.85
2022-08-01T21:08:25.240Z,22.85
2022-08-01T21:10:51.533Z,22.81
2022-08-01T21:13:21.154Z,22.82
2022-08-01T21:16:22.621Z,22.78
2022-08-01T21:18:35.501Z,22.54
2022-08-01T21:21:02.230Z,22.44
2022-08-01T21:23:28.529Z,22.50
2022-08-01T21:25:54.829Z,22.38
2022-08-01T21:28:21.192Z,22.60
2022-08-01T21:30:53.871Z,22.60
2022-08-01T21:33:22.126Z,22.65
2022-08-01T21:35:49.935Z,22.66
2022-08-01T21:38:16.156Z,22.46
2022-08-01T21:40:42.471Z,22.54
2022-08-01T21:43:08.788Z,22.41
2022-08-01T21:45:35.082Z,22.47
2022-08-01T21:48:01.368Z,22.47
2022-08-01T21:50:27.670Z,22.39
2022-08-01T21:52:53.982Z,22.34
2022-08-01T21:55:20.270Z,22.24
2022-08-01T21:57:47.440Z,22.25
2022-08-01T22:00:21.062Z,22.20
2022-08-01T22:02:54.015Z,22.17
2022-08-01T22:05:20.330Z,22.16
2022-08-01T22:07:48.762Z,22.16
2022-08-01T22:10:15.077Z,22.14
2022-08-01T22:12:41.378Z,22.13
2022-08-01T22:15:07.684Z,22.09
2022-08-01T22:17:33.971Z,22.01
2022-08-01T22:20:00.285Z,21.99
2022-08-01T22:22:44.286Z,21.98
2022-08-01T22:25:12.892Z,21.91
2022-08-01T22:28:06.399Z,21.88
2022-08-01T22:30:28.465Z,21.84
2022-08-01T22:33:15.166Z,21.89
2022-08-01T22:35:41.916Z,21.90
2022-08-01T22:38:09.844Z,21.86
2022-08-01T22:40:36.340Z,21.84
2022-08-01T22:43:02.656Z,21.79
2022-08-01T22:45:28.942Z,21.79
2022-08-01T22:47:55.260Z,21.73
2022-08-01T22:50:36.610Z,21.77
2022-08-01T22:53:03.177Z,21.78
2022-08-01T22:55:59.223Z,21.74
2022-08-01T22:58:18.850Z,21.67
2022-08-01T23:00:45.144Z,21.09
2022-08-01T23:03:11.468Z,21.19
2022-08-01T23:05:37.763Z,21.26
2022-08-01T23:08:04.058Z,21.37
2022-08-01T23:10:30.369Z,21.38
2022-08-01T23:12:56.698Z,21.39
2022-08-01T23:15:23.009Z,21.41
2022-08-01T23:17:49.425Z,21.33
2022-08-01T23:20:15.784Z,21.32
2022-08-01T23:22:42.077Z,21.26
2022-08-01T23:25:08.374Z,21.24
2022-08-01T23:28:03.637Z,21.11
2022-08-01T23:30:20.943Z,21.12
2022-08-01T23:32:47.299Z,21.11
2022-08-01T23:35:13.601Z,21.09
2022-08-01T23:37:39.897Z,21.03
2022-08-01T23:40:06.290Z,20.70
2022-08-01T23:42:32.595Z,20.82
2022-08-01T23:44:58.892Z,20.83
2022-08-01T23:47:25.218Z,20.84
2022-08-01T23:49:53.705Z,20.76
2022-08-01T23:52:20.573Z,20.69
2022-08-01T23:54:47.861Z,20.67
2022-08-01T23:57:16.164Z,20.63
2022-08-01T23:59:53.000Z,20.70
